createdAt,value
2022-10-31T00:01:29.571Z,24.00
2022-10-31T00:03:56.932Z,21.58
2022-10-31T00:06:24.749Z,13.98
2022-10-31T00:09:01.569Z,35.10
2022-10-31T00:11:29.418Z,17.35
2022-10-31T00:14:01.026Z,30.38
2022-10-31T00:16:29.759Z,22.75
2022-10-31T00:19:02.577Z,21.42
2022-10-31T00:21:31.444Z,20.17
2022-10-31T00:24:00.240Z,18.23
2022-10-31T00:26:33.667Z,27.13
2022-10-31T00:29:01.623Z,30.63
2022-10-31T00:31:29.401Z,18.73
2022-10-31T00:33:58.053Z,17.58
2022-10-31T00:36:27.717Z,31.98
2022-10-31T00:38:55.187Z,31.60
2022-10-31T00:41:22.844Z,25.05
2022-10-31T00:43:50.195Z,26.52
2022-10-31T00:46:17.529Z,24.08
2022-10-31T00:48:45.331Z,24.88
2022-10-31T00:51:12.686Z,17.50
2022-10-31T00:53:42.131Z,27.25
2022-10-31T00:56:09.615Z,22.08
2022-10-31T00:58:37.087Z,20.35
2022-10-31T01:01:04.807Z,15.80
2022-10-31T01:03:34.101Z,20.05
2022-10-31T01:06:06.358Z,26.52
2022-10-31T01:08:35.322Z,24.05
2022-10-31T01:11:20.012Z,34.75
2022-10-31T01:13:48.733Z,24.25
2022-10-31T01:16:19.124Z,22.42
2022-10-31T01:18:47.422Z,25.20
2022-10-31T01:21:21.802Z,25.73
2022-10-31T01:23:51.454Z,27.05
2022-10-31T01:26:21.764Z,30.83
2022-10-31T01:28:52.354Z,20.83
2022-10-31T01:31:22.370Z,28.90
2022-10-31T01:33:49.960Z,29.98
2022-10-31T01:36:24.581Z,21.42
2022-10-31T01:38:54.311Z,19.33
2022-10-31T01:41:25.427Z,22.88
2022-10-31T01:43:56.086Z,19.10
2022-10-31T01:46:34.126Z,18.15
2022-10-31T01:49:10.289Z,36.55
2022-10-31T01:51:42.614Z,30.55
2022-10-31T01:54:13.926Z,23.15
2022-10-31T01:56:45.434Z,20.92
2022-10-31T01:59:17.876Z,36.10
2022-10-31T02:01:45.321Z,24.92
2022-10-31T02:04:13.287Z,25.73
2022-10-31T02:06:47.766Z,23.65
2022-10-31T02:09:16.037Z,26.83
2022-10-31T02:11:45.402Z,15.95
2022-10-31T02:14:14.299Z,29.83
2022-10-31T02:16:41.778Z,30.55
2022-10-31T02:19:13.345Z,24.63
2022-10-31T02:22:01.074Z,28.52
2022-10-31T02:27:33.005Z,24.95
2022-10-31T02:30:17.700Z,25.08
2022-10-31T02:33:07.246Z,33.38
2022-10-31T02:35:47.172Z,21.95
2022-10-31T02:38:30.769Z,22.60
2022-10-31T02:41:35.950Z,33.20
2022-10-31T02:44:31.211Z,19.92
2022-10-31T02:47:22.269Z,24.83
2022-10-31T02:50:03.683Z,22.80
2022-10-31T02:52:34.134Z,34.20
2022-10-31T02:55:34.952Z,29.48
2022-10-31T02:58:10.678Z,22.02
2022-10-31T03:00:55.775Z,21.15
2022-10-31T03:03:38.573Z,38.42
2022-10-31T03:06:53.050Z,23.17
2022-10-31T03:09:41.666Z,30.50
2022-10-31T03:12:15.996Z,36.13
2022-10-31T03:14:54.510Z,40.33
2022-10-31T03:17:28.937Z,41.22
2022-10-31T03:19:59.251Z,36.72
2022-10-31T03:22:30.705Z,24.65
2022-10-31T03:25:02.818Z,30.17
2022-10-31T03:27:35.431Z,21.63
2022-10-31T03:30:05.931Z,25.35
2022-10-31T03:32:51.500Z,23.85
2022-10-31T03:35:21.621Z,26.15
2022-10-31T03:37:50.543Z,32.83
2022-10-31T03:40:21.772Z,31.95
2022-10-31T03:43:00.655Z,25.58
2022-10-31T03:45:31.669Z,33.47
2022-10-31T03:48:00.876Z,35.05
2022-10-31T03:50:38.078Z,27.67
2022-10-31T03:53:23.584Z,28.30
2022-10-31T03:56:02.235Z,27.92
2022-10-31T03:58:43.796Z,28.90
2022-10-31T04:01:14.941Z,39.67
2022-10-31T04:03:44.655Z,30.92
2022-10-31T04:06:17.346Z,35.67
2022-10-31T04:08:52.074Z,31.05
2022-10-31T04:11:24.009Z,39.58
2022-10-31T04:14:12.324Z,47.38
2022-10-31T04:16:43.876Z,32.78
2022-10-31T04:19:13.713Z,21.92
2022-10-31T04:21:44.311Z,24.60
2022-10-31T04:24:12.449Z,48.33
2022-10-31T04:26:43.029Z,31.73
2022-10-31T04:29:10.516Z,27.63
2022-10-31T04:31:39.245Z,29.30
2022-10-31T04:34:06.618Z,32.88
2022-10-31T04:36:34.774Z,28.30
2022-10-31T04:39:02.241Z,27.67
2022-10-31T04:41:41.624Z,35.40
2022-10-31T04:44:14.510Z,37.30
2022-10-31T04:46:42.008Z,34.97
2022-10-31T04:49:10.537Z,36.25
2022-10-31T04:51:37.980Z,28.98
2022-10-31T04:54:05.842Z,29.10
2022-10-31T04:57:10.871Z,22.73
2022-10-31T04:59:38.968Z,28.30
2022-10-31T05:02:06.485Z,33.10
2022-10-31T05:04:48.047Z,22.67
2022-10-31T05:07:16.519Z,31.50
2022-10-31T05:09:44.533Z,30.42
2022-10-31T05:12:14.688Z,34.20
2022-10-31T05:15:00.579Z,30.70
2022-10-31T05:17:46.629Z,30.73
2022-10-31T05:20:32.774Z,32.30
2022-10-31T05:23:13.922Z,33.08
2022-10-31T05:25:42.494Z,56.13
2022-10-31T05:28:09.913Z,30.58
2022-10-31T05:30:38.312Z,38.90
2022-10-31T05:33:09.636Z,33.00
2022-10-31T05:35:56.262Z,33.38
2022-10-31T05:38:26.198Z,35.47
2022-10-31T05:40:59.050Z,24.42
2022-10-31T05:43:26.777Z,31.33
2022-10-31T05:45:55.789Z,18.05
2022-10-31T05:48:41.427Z,41.22
2022-10-31T05:51:27.321Z,23.00
2022-10-31T05:53:54.608Z,40.42
2022-10-31T05:56:23.486Z,28.63
2022-10-31T05:58:50.913Z,33.92
2022-10-31T06:01:18.332Z,39.42
2022-10-31T06:03:46.896Z,32.53
2022-10-31T06:06:17.029Z,17.33
2022-10-31T06:08:44.386Z,34.58
2022-10-31T06:11:18.591Z,30.42
2022-10-31T06:14:04.439Z,31.05
2022-10-31T06:16:39.261Z,29.35
2022-10-31T06:19:32.405Z,26.90
2022-10-31T06:22:00.255Z,37.38
2022-10-31T06:24:27.525Z,42.33
2022-10-31T06:26:54.819Z,44.13
2022-10-31T06:29:22.694Z,24.20
2022-10-31T06:32:04.749Z,28.70
2022-10-31T06:34:36.993Z,44.60
2022-10-31T06:37:04.677Z,30.00
2022-10-31T06:39:32.148Z,30.33
2022-10-31T06:41:59.767Z,40.22
2022-10-31T06:44:28.422Z,30.60
2022-10-31T06:46:56.192Z,43.60
2022-10-31T06:49:42.040Z,28.90
2022-10-31T06:52:14.639Z,38.03
2022-10-31T06:54:42.127Z,32.83
2022-10-31T06:57:09.823Z,32.33
2022-10-31T06:59:39.042Z,46.50
2022-10-31T07:02:08.548Z,30.25
2022-10-31T07:04:36.206Z,32.70
2022-10-31T07:07:03.742Z,27.90
2022-10-31T07:09:31.560Z,32.25
2022-10-31T07:12:02.715Z,34.47
2022-10-31T07:14:31.823Z,25.35
2022-10-31T07:16:59.231Z,28.70
2022-10-31T07:19:33.386Z,31.27
2022-10-31T07:22:00.816Z,26.63
2022-10-31T07:24:33.475Z,38.05
2022-10-31T07:27:19.051Z,41.95
2022-10-31T07:29:48.992Z,32.60
2022-10-31T07:32:17.622Z,27.85
2022-10-31T07:34:52.506Z,26.75
2022-10-31T07:37:23.074Z,34.03
2022-10-31T07:39:50.491Z,48.75
2022-10-31T07:42:18.049Z,29.98
2022-10-31T07:44:46.741Z,44.22
2022-10-31T07:47:43.419Z,38.03
2022-10-31T07:50:34.743Z,39.38
2022-10-31T07:53:20.512Z,37.08
2022-10-31T07:55:59.729Z,35.42
2022-10-31T07:58:31.508Z,34.97
2022-10-31T08:01:06.608Z,20.70
2022-10-31T08:03:43.929Z,37.03
2022-10-31T08:06:23.111Z,34.63
2022-10-31T08:08:50.952Z,22.15
2022-10-31T08:11:20.079Z,37.70
2022-10-31T08:16:43.484Z,27.20
2022-10-31T08:19:11.933Z,32.28
2022-10-31T08:21:40.906Z,37.22
2022-10-31T08:24:09.592Z,37.58
2022-10-31T08:26:37.305Z,32.80
2022-10-31T08:29:08.560Z,27.70
2022-10-31T08:31:42.604Z,41.63
2022-10-31T08:34:28.677Z,36.10
2022-10-31T08:37:31.383Z,35.55
2022-10-31T08:39:58.754Z,23.17
2022-10-31T08:42:26.505Z,22.05
2022-10-31T08:44:53.860Z,39.60
2022-10-31T08:47:23.002Z,39.60
2022-10-31T08:49:50.419Z,35.13
2022-10-31T08:52:23.449Z,36.40
2022-10-31T08:55:00.705Z,37.35
2022-10-31T08:57:46.533Z,19.25
2022-10-31T09:00:14.450Z,39.17
2022-10-31T09:03:12.542Z,25.42
2022-10-31T09:05:40.651Z,27.58
2022-10-31T09:08:16.371Z,29.23
2022-10-31T09:10:46.321Z,39.83
2022-10-31T09:13:21.232Z,33.55
2022-10-31T09:16:09.401Z,29.27
2022-10-31T09:18:37.106Z,37.42
2022-10-31T09:21:04.987Z,21.85
2022-10-31T09:23:32.961Z,17.45
2022-10-31T09:26:02.648Z,19.10
2022-10-31T09:28:30.318Z,24.35
2022-10-31T09:31:02.495Z,18.58
2022-10-31T09:33:48.452Z,18.77
2022-10-31T09:36:34.471Z,18.02
2022-10-31T09:39:02.223Z,9.60
2022-10-31T09:41:59.583Z,22.35
2022-10-31T09:44:29.108Z,13.35
2022-10-31T09:47:18.632Z,29.13
2022-10-31T09:50:15.945Z,26.98
2022-10-31T09:52:52.821Z,17.08
2022-10-31T09:55:35.950Z,21.60
2022-10-31T09:58:04.050Z,17.60
2022-10-31T10:00:33.115Z,16.90
2022-10-31T10:03:09.007Z,18.30
2022-10-31T10:05:52.029Z,20.42
2022-10-31T10:08:32.782Z,28.73
2022-10-31T10:11:41.096Z,15.05
2022-10-31T10:14:40.684Z,23.60
2022-10-31T10:17:28.688Z,13.45
2022-10-31T10:20:31.417Z,20.95
2022-10-31T10:23:02.168Z,5.88
2022-10-31T10:25:34.372Z,22.60
2022-10-31T10:28:04.579Z,20.42
2022-10-31T10:30:41.150Z,12.95
2022-10-31T10:33:40.582Z,15.37
2022-10-31T10:36:17.304Z,13.55
2022-10-31T10:39:05.282Z,11.38
2022-10-31T10:41:34.942Z,16.58
2022-10-31T10:44:06.382Z,16.00
2022-10-31T10:47:02.124Z,13.18
2022-10-31T10:49:51.476Z,18.17
2022-10-31T10:52:50.211Z,14.60
2022-10-31T10:56:03.462Z,10.00
2022-10-31T10:58:30.946Z,15.82
2022-10-31T11:00:58.755Z,9.88
2022-10-31T11:03:26.254Z,15.23
2022-10-31T11:05:59.972Z,17.83
2022-10-31T11:08:32.602Z,3.97
2022-10-31T11:11:26.420Z,8.55
2022-10-31T11:14:01.510Z,14.38
2022-10-31T11:16:30.799Z,12.35
2022-10-31T11:19:28.004Z,14.20
2022-10-31T11:22:06.189Z,17.60
2022-10-31T11:24:40.305Z,8.65
2022-10-31T11:27:22.614Z,11.15
2022-10-31T11:29:55.701Z,14.15
2022-10-31T11:32:29.291Z,21.13
2022-10-31T11:35:00.313Z,20.08
2022-10-31T11:37:31.989Z,7.38
2022-10-31T11:40:07.008Z,16.02
2022-10-31T11:42:41.280Z,11.52
2022-10-31T11:45:32.266Z,9.35
2022-10-31T11:48:02.144Z,7.70
2022-10-31T11:50:41.343Z,14.88
2022-10-31T11:53:21.291Z,8.88
2022-10-31T11:56:00.250Z,8.75
2022-10-31T11:58:27.826Z,8.90
2022-10-31T12:00:57.206Z,5.60
2022-10-31T12:03:24.457Z,4.40
2022-10-31T12:06:10.289Z,8.07
2022-10-31T12:08:39.417Z,8.40
2022-10-31T12:11:30.776Z,5.60
2022-10-31T12:14:03.838Z,6.72
2022-10-31T12:16:41.051Z,6.60
2022-10-31T12:19:30.277Z,12.68
2022-10-31T12:22:22.672Z,6.22
2022-10-31T12:25:14.447Z,13.90
2022-10-31T12:28:17.126Z,9.98
2022-10-31T12:31:09.170Z,7.72
2022-10-31T12:34:21.887Z,5.22
2022-10-31T12:37:19.977Z,11.35
2022-10-31T12:40:21.132Z,6.75
2022-10-31T12:42:55.413Z,6.55
2022-10-31T12:45:26.438Z,12.82
2022-10-31T12:48:05.010Z,8.07
2022-10-31T12:50:54.210Z,7.45
2022-10-31T12:53:27.556Z,9.32
2022-10-31T12:56:15.830Z,11.02
2022-10-31T12:59:04.569Z,5.72
2022-10-31T13:01:45.830Z,6.28
2022-10-31T13:04:19.611Z,8.73
2022-10-31T13:07:13.125Z,8.75
2022-10-31T13:09:48.928Z,2.53
2022-10-31T13:12:20.256Z,4.43
2022-10-31T13:14:55.756Z,5.32
2022-10-31T13:17:30.160Z,9.05
2022-10-31T13:20:16.966Z,9.98
2022-10-31T13:22:47.929Z,7.88
2022-10-31T13:25:23.860Z,9.38
2022-10-31T13:28:18.790Z,8.00
2022-10-31T13:30:46.187Z,11.38
2022-10-31T13:33:22.223Z,9.77
2022-10-31T13:35:53.932Z,10.75
2022-10-31T13:38:31.917Z,7.75
2022-10-31T13:41:22.492Z,5.95
2022-10-31T13:44:21.665Z,4.32
2022-10-31T13:46:48.933Z,7.13
2022-10-31T13:49:45.360Z,8.10
2022-10-31T13:52:12.660Z,6.28
2022-10-31T13:54:48.013Z,9.60
2022-10-31T13:57:34.739Z,7.50
2022-10-31T14:00:24.145Z,10.60
2022-10-31T14:02:58.152Z,5.93
2022-10-31T14:05:37.757Z,9.57
2022-10-31T14:08:07.510Z,8.35
2022-10-31T14:10:39.100Z,13.95
2022-10-31T14:13:42.238Z,6.97
2022-10-31T14:16:31.137Z,8.25
2022-10-31T14:19:20.988Z,7.30
2022-10-31T14:21:49.595Z,16.02
2022-10-31T14:24:16.871Z,15.15
2022-10-31T14:26:59.968Z,11.43
2022-10-31T14:29:32.423Z,10.20
2022-10-31T14:32:15.549Z,7.70
2022-10-31T14:34:51.841Z,6.60
2022-10-31T14:37:40.985Z,6.35
2022-10-31T14:40:36.826Z,7.35
2022-10-31T14:43:32.171Z,7.68
2022-10-31T14:46:02.474Z,4.80
2022-10-31T14:49:00.435Z,10.80
2022-10-31T14:51:43.002Z,12.18
2022-10-31T14:54:23.466Z,9.93
2022-10-31T14:56:56.297Z,6.47
2022-10-31T14:59:29.832Z,10.70
2022-10-31T15:02:10.785Z,8.68
2022-10-31T15:04:38.968Z,9.43
2022-10-31T15:07:27.276Z,9.32
2022-10-31T15:10:03.597Z,21.23
2022-10-31T15:12:35.288Z,9.93
2022-10-31T15:15:15.955Z,12.52
2022-10-31T15:17:47.323Z,8.30
2022-10-31T15:20:20.339Z,5.57
2022-10-31T15:22:48.157Z,17.52
2022-10-31T15:25:21.644Z,11.93
2022-10-31T15:27:53.276Z,10.10
2022-10-31T15:30:26.201Z,13.77
2022-10-31T15:33:01.302Z,16.30
2022-10-31T15:35:31.417Z,12.90
2022-10-31T15:38:00.966Z,9.60
2022-10-31T15:40:29.318Z,14.27
2022-10-31T15:43:04.916Z,8.90
2022-10-31T15:45:32.803Z,11.20
2022-10-31T15:48:19.188Z,7.57
2022-10-31T15:51:07.183Z,9.98
2022-10-31T15:53:49.357Z,15.57
2022-10-31T15:56:30.381Z,5.93
2022-10-31T15:58:59.681Z,12.60
2022-10-31T16:01:34.493Z,7.72
2022-10-31T16:04:14.114Z,12.07
2022-10-31T16:06:41.466Z,12.10
2022-10-31T16:09:25.329Z,9.30
2022-10-31T16:11:52.720Z,7.57
2022-10-31T16:14:25.721Z,9.30
2022-10-31T16:16:56.347Z,4.63
2022-10-31T16:19:25.249Z,9.43
2022-10-31T16:22:04.768Z,9.82
2022-10-31T16:24:34.527Z,5.30
2022-10-31T16:27:08.075Z,10.82
2022-10-31T16:29:35.481Z,8.00
2022-10-31T16:32:02.829Z,8.52
2022-10-31T16:34:30.165Z,14.30
2022-10-31T16:36:57.543Z,13.23
2022-10-31T16:39:25.196Z,11.48
2022-10-31T16:41:56.627Z,11.85
2022-10-31T16:44:29.603Z,8.32
2022-10-31T16:47:13.234Z,6.35
2022-10-31T16:49:40.957Z,11.13
2022-10-31T16:52:08.250Z,12.02
2022-10-31T16:54:35.778Z,8.57
2022-10-31T16:57:06.410Z,12.25
2022-10-31T16:59:34.850Z,6.05
2022-10-31T17:02:04.159Z,13.68
2022-10-31T17:07:01.709Z,11.70
2022-10-31T17:09:29.055Z,9.20
2022-10-31T17:11:56.690Z,12.27
2022-10-31T17:14:24.568Z,11.95
2022-10-31T17:16:51.963Z,10.38
2022-10-31T17:19:19.299Z,8.00
2022-10-31T17:21:47.040Z,10.02
2022-10-31T17:24:15.848Z,9.30
2022-10-31T17:26:43.704Z,11.50
2022-10-31T17:29:11.183Z,16.92
2022-10-31T17:31:39.421Z,17.92
2022-10-31T17:34:07.425Z,9.82
2022-10-31T17:39:29.036Z,16.77
2022-10-31T17:41:59.222Z,19.98
2022-10-31T17:44:34.383Z,25.63
2022-10-31T17:47:58.429Z,11.35
2022-10-31T17:50:44.212Z,13.98
2022-10-31T17:53:11.874Z,14.88
2022-10-31T17:55:42.232Z,20.85
2022-10-31T17:58:12.977Z,16.58
2022-10-31T18:01:10.804Z,20.27
2022-10-31T18:03:39.497Z,21.20
2022-10-31T18:06:07.352Z,24.05
2022-10-31T18:08:37.036Z,23.33
2022-10-31T18:11:21.059Z,21.50
2022-10-31T18:13:54.061Z,28.50
2022-10-31T18:16:22.013Z,23.42
2022-10-31T18:18:53.733Z,25.73
2022-10-31T18:21:21.424Z,27.02
2022-10-31T18:23:53.172Z,42.47
2022-10-31T18:26:20.462Z,36.97
2022-10-31T18:28:47.766Z,36.08
2022-10-31T18:31:15.436Z,37.17
2022-10-31T18:33:43.202Z,33.92
2022-10-31T18:36:12.078Z,46.85
2022-10-31T18:38:41.590Z,37.00
2022-10-31T18:41:09.449Z,36.85
2022-10-31T18:43:37.632Z,38.67
2022-10-31T18:46:08.866Z,41.00
2022-10-31T18:48:36.881Z,39.53
2022-10-31T18:51:09.849Z,36.08
2022-10-31T18:53:37.445Z,42.13
2022-10-31T18:56:09.893Z,38.65
2022-10-31T18:58:37.452Z,48.35
2022-10-31T19:01:10.128Z,48.08
2022-10-31T19:03:38.700Z,46.97
2022-10-31T19:06:07.114Z,37.88
2022-10-31T19:08:35.182Z,47.17
2022-10-31T19:11:12.107Z,58.88
2022-10-31T19:13:40.432Z,46.25
2022-10-31T19:16:14.078Z,43.17
2022-10-31T19:18:43.287Z,50.33
2022-10-31T19:21:15.931Z,49.38
2022-10-31T19:23:44.371Z,44.22
2022-10-31T19:26:12.945Z,44.72
2022-10-31T19:28:41.774Z,44.63
2022-10-31T19:31:09.795Z,48.00
2022-10-31T19:33:37.879Z,47.45
2022-10-31T19:36:09.645Z,46.00
2022-10-31T19:38:39.164Z,42.60
2022-10-31T19:41:10.834Z,42.50
2022-10-31T19:43:40.136Z,44.63
2022-10-31T19:46:17.350Z,48.65
2022-10-31T19:48:55.805Z,40.53
2022-10-31T19:51:23.460Z,57.15
2022-10-31T19:53:52.173Z,41.28
2022-10-31T19:56:22.689Z,51.50
2022-10-31T19:58:50.184Z,43.10
2022-10-31T20:01:22.785Z,50.53
2022-10-31T20:03:51.055Z,46.53
2022-10-31T20:06:26.692Z,40.33
2022-10-31T20:08:57.696Z,49.30
2022-10-31T20:11:26.533Z,36.80
2022-10-31T20:13:58.325Z,41.30
2022-10-31T20:16:26.914Z,39.75
2022-10-31T20:18:54.876Z,38.95
2022-10-31T20:21:25.040Z,36.67
2022-10-31T20:24:01.125Z,36.97
2022-10-31T20:26:29.764Z,39.20
2022-10-31T20:28:58.783Z,40.22
2022-10-31T20:31:28.617Z,40.38
2022-10-31T20:33:56.517Z,32.38
2022-10-31T20:36:24.194Z,36.90
2022-10-31T20:38:52.570Z,33.97
2022-10-31T20:41:20.384Z,23.77
2022-10-31T20:43:48.318Z,26.73
2022-10-31T20:46:25.012Z,21.27
2022-10-31T20:48:53.817Z,22.38
2022-10-31T20:51:27.960Z,22.25
2022-10-31T20:53:57.067Z,25.58
2022-10-31T20:56:25.983Z,30.58
2022-10-31T20:58:56.074Z,35.22
2022-10-31T21:01:29.407Z,19.83
2022-10-31T21:03:58.740Z,27.40
2022-10-31T21:06:27.111Z,30.50
2022-10-31T21:08:55.451Z,30.60
2022-10-31T21:11:25.240Z,18.80
2022-10-31T21:13:53.286Z,18.30
2022-10-31T21:16:29.358Z,19.27
2022-10-31T21:18:56.940Z,20.15
2022-10-31T21:21:30.705Z,21.38
2022-10-31T21:24:05.217Z,29.48
2022-10-31T21:26:36.146Z,25.10
2022-10-31T21:29:05.696Z,15.25
2022-10-31T21:31:34.747Z,21.70
2022-10-31T21:34:02.097Z,19.98
2022-10-31T21:36:31.253Z,25.08
2022-10-31T21:38:58.765Z,22.25
2022-10-31T21:41:27.115Z,24.45
2022-10-31T21:43:55.278Z,17.75
2022-10-31T21:46:25.475Z,22.58
2022-10-31T21:48:53.540Z,14.98
2022-10-31T21:51:29.330Z,25.85
2022-10-31T21:54:16.356Z,17.77
2022-10-31T21:56:44.174Z,17.37
2022-10-31T21:59:11.725Z,17.55
2022-10-31T22:01:39.264Z,20.35
2022-10-31T22:04:06.916Z,23.10
2022-10-31T22:06:35.484Z,19.13
2022-10-31T22:09:05.288Z,13.82
2022-10-31T22:11:33.255Z,12.90
2022-10-31T22:14:01.331Z,13.90
2022-10-31T22:16:30.177Z,7.22
2022-10-31T22:18:59.568Z,17.67
2022-10-31T22:21:28.363Z,15.85
2022-10-31T22:24:03.241Z,18.98
2022-10-31T22:26:32.815Z,11.57
2022-10-31T22:29:03.418Z,7.70
2022-10-31T22:31:32.299Z,9.75
2022-10-31T22:34:00.360Z,10.95
2022-10-31T22:36:29.776Z,12.45
2022-10-31T22:38:58.198Z,16.67
2022-10-31T22:41:31.393Z,17.55
2022-10-31T22:43:59.306Z,5.75
2022-10-31T22:46:29.944Z,19.23
2022-10-31T22:49:00.171Z,15.05
2022-10-31T22:51:36.187Z,13.48
2022-10-31T22:54:04.375Z,10.73
2022-10-31T22:56:34.200Z,17.83
2022-10-31T22:59:02.565Z,21.77
2022-10-31T23:01:32.487Z,21.02
2022-10-31T23:04:01.934Z,11.68
2022-10-31T23:06:32.499Z,14.27
2022-10-31T23:09:02.046Z,23.08
2022-10-31T23:11:40.117Z,18.88
2022-10-31T23:14:15.800Z,16.67
2022-10-31T23:17:01.195Z,9.13
2022-10-31T23:19:30.467Z,4.30
2022-10-31T23:22:01.018Z,8.60
2022-10-31T23:24:37.583Z,15.77
2022-10-31T23:27:20.591Z,11.33
2022-10-31T23:29:51.885Z,13.25
2022-10-31T23:32:20.985Z,10.15
2022-10-31T23:34:50.508Z,9.95
2022-10-31T23:37:19.858Z,6.18
2022-10-31T23:39:47.706Z,12.50
2022-10-31T23:42:15.688Z,17.67
2022-10-31T23:44:43.239Z,14.30
2022-10-31T23:47:10.609Z,18.75
2022-10-31T23:49:38.032Z,10.73
2022-10-31T23:52:05.687Z,24.63
2022-10-31T23:54:33.491Z,8.43
2022-10-31T23:57:00.870Z,11.88
2022-10-31T23:59:31.799Z,17.33
